Time;durP1;ratioP1;P1;durP2;ratioP2;P2;SDS_P1;SDS_P2;PMS_P1;PMS_P2;Temp;Humidity;BMP_temperature;BMP_pressure;BME280_temperature;BME280_humidity;BME280_pressure;Samples;Min_cycle;Max_cycle;Signal;HPM_P1;HPM_P2
2022/01/02 00:02:06;;;;;;;21.05;14.00;;;;;;;;;;4966872;28;20022;-85
2022/01/02 00:04:35;;;;;;;19.55;12.48;;;;;;;;;;4955020;28;20035;-84
2022/01/02 00:07:05;;;;;;;21.25;13.63;;;;;;;;;;4970107;28;20419;-85
2022/01/02 00:09:35;;;;;;;20.35;13.32;;;;;;;;;;4929874;28;20049;-85
2022/01/02 00:12:09;;;;;;;18.85;12.68;;;;;;;;;;4907794;28;20147;-85
2022/01/02 00:14:42;;;;;;;20.08;13.07;;;;;;;;;;4914873;28;20110;-85
2022/01/02 00:17:09;;;;;;;18.63;12.75;;;;;;;;;;4926197;28;20065;-85
2022/01/02 00:19:45;;;;;;;18.48;12.50;;;;;;;;;;4921232;28;20802;-85
2022/01/02 00:22:19;;;;;;;18.83;12.25;;;;;;;;;;4908131;28;20074;-86
2022/01/02 00:24:50;;;;;;;19.13;11.93;;;;;;;;;;4929539;28;20279;-80
2022/01/02 00:27:17;;;;;;;20.77;13.07;;;;;;;;;;4908763;28;20130;-80
2022/01/02 00:29:46;;;;;;;19.40;11.95;;;;;;;;;;4905270;29;20039;-80
2022/01/02 00:32:13;;;;;;;19.75;12.20;;;;;;;;;;4902512;29;20138;-80
2022/01/02 00:34:42;;;;;;;20.08;12.35;;;;;;;;;;4886268;29;20099;-80
2022/01/02 00:37:10;;;;;;;18.52;12.13;;;;;;;;;;4898920;29;20767;-79
2022/01/02 00:39:38;;;;;;;17.73;11.30;;;;;;;;;;4905720;29;20943;-78
2022/01/02 00:42:08;;;;;;;21.08;12.48;;;;;;;;;;4898403;29;20047;-79
2022/01/02 00:44:46;;;;;;;20.05;12.98;;;;;;;;;;4876026;29;20043;-80
2022/01/02 00:47:25;;;;;;;19.45;12.48;;;;;;;;;;4886172;29;20708;-79
2022/01/02 00:50:00;;;;;;;19.55;12.60;;;;;;;;;;4888539;28;20067;-79
2022/01/02 00:52:29;;;;;;;19.33;12.48;;;;;;;;;;4902041;29;20039;-79
2022/01/02 00:54:56;;;;;;;18.20;12.18;;;;;;;;;;4888683;29;20039;-82
2022/01/02 00:57:31;;;;;;;19.80;12.63;;;;;;;;;;4886617;29;20050;-81
2022/01/02 01:00:17;;;;;;;18.83;12.02;;;;;;;;;;4920923;28;20043;-79
2022/01/02 01:02:48;;;;;;;20.08;12.80;;;;;;;;;;4929360;28;20035;-79
2022/01/02 01:05:19;;;;;;;18.67;12.35;;;;;;;;;;4937072;28;20094;-79
2022/01/02 01:07:49;;;;;;;18.17;12.07;;;;;;;;;;4948051;28;20035;-79
2022/01/02 01:10:17;;;;;;;16.95;11.55;;;;;;;;;;4925176;28;20062;-79
2022/01/02 01:12:46;;;;;;;18.70;12.35;;;;;;;;;;4928832;28;20101;-79
2022/01/02 01:15:12;;;;;;;17.55;11.48;;;;;;;;;;4929827;28;20045;-78
2022/01/02 01:17:40;;;;;;;19.17;11.88;;;;;;;;;;4948081;28;20037;-78
2022/01/02 01:20:14;;;;;;;17.77;11.95;;;;;;;;;;4946962;28;20101;-77
2022/01/02 01:22:44;;;;;;;18.55;12.00;;;;;;;;;;4965902;28;20124;-78
2022/01/02 01:25:21;;;;;;;18.50;11.90;;;;;;;;;;4959750;28;20046;-79
2022/01/02 01:27:51;;;;;;;17.20;10.80;;;;;;;;;;4966350;28;20440;-78
2022/01/02 01:30:18;;;;;;;18.33;11.93;;;;;;;;;;4905616;28;20073;-81
2022/01/02 01:32:44;;;;;;;17.35;11.55;;;;;;;;;;4919624;28;20035;-78
2022/01/02 01:35:10;;;;;;;;;;;;;;;;;;4915584;28;20031;-81
2022/01/02 01:37:37;;;;;;;16.95;10.43;;;;;;;;;;4921969;28;20412;-78
2022/01/02 01:40:08;;;;;;;16.90;9.77;;;;;;;;;;4904469;28;20035;-79
2022/01/02 01:42:54;;;;;;;14.60;9.75;;;;;;;;;;4889337;28;20035;-81
2022/01/02 01:47:52;;;;;;;15.90;9.82;;;;;;;;;;4921016;28;19914;-79
2022/01/02 01:50:23;;;;;;;15.38;9.50;;;;;;;;;;4908502;28;20043;-79
2022/01/02 01:52:51;;;;;;;16.52;10.20;;;;;;;;;;4917815;28;20114;-80
2022/01/02 01:55:19;;;;;;;15.45;9.63;;;;;;;;;;4900479;28;20050;-79
2022/01/02 01:57:49;;;;;;;15.30;9.95;;;;;;;;;;4923652;28;20059;-78
2022/01/02 02:00:21;;;;;;;13.98;9.27;;;;;;;;;;4903390;28;20032;-79
2022/01/02 02:02:49;;;;;;;16.02;10.07;;;;;;;;;;4922840;28;20350;-78
2022/01/02 02:05:17;;;;;;;15.77;10.30;;;;;;;;;;4920504;28;20030;-79
2022/01/02 02:07:45;;;;;;;15.00;9.98;;;;;;;;;;4908634;28;20047;-79
2022/01/02 02:10:39;;;;;;;16.02;10.93;;;;;;;;;;4921987;28;20054;-79
2022/01/02 02:13:11;;;;;;;15.77;9.90;;;;;;;;;;4905957;28;20065;-80
2022/01/02 02:15:37;;;;;;;16.10;10.20;;;;;;;;;;4922687;28;20035;-79
2022/01/02 02:18:06;;;;;;;14.88;9.73;;;;;;;;;;4911272;28;20038;-80
2022/01/02 02:20:37;;;;;;;14.90;10.07;;;;;;;;;;4956269;28;20038;-79
2022/01/02 02:23:07;;;;;;;15.43;9.98;;;;;;;;;;4965967;28;20496;-80
2022/01/02 02:25:35;;;;;;;15.38;10.05;;;;;;;;;;4982896;28;20150;-80
2022/01/02 02:28:07;;;;;;;15.35;9.23;;;;;;;;;;4965995;28;20058;-79
2022/01/02 02:30:36;;;;;;;15.18;8.68;;;;;;;;;;4983850;28;20477;-78
2022/01/02 02:33:05;;;;;;;13.50;8.45;;;;;;;;;;4980670;28;20141;-78
2022/01/02 02:35:35;;;;;;;14.98;8.88;;;;;;;;;;4936016;28;20034;-79
2022/01/02 02:38:05;;;;;;;13.27;8.57;;;;;;;;;;4948336;28;20057;-79
2022/01/02 02:40:33;;;;;;;13.52;8.25;;;;;;;;;;4983106;28;20046;-79
2022/01/02 02:43:13;;;;;;;14.18;8.02;;;;;;;;;;4961556;28;20057;-78
2022/01/02 02:51:19;;;;;;;12.40;7.60;;;;;;;;;;4950457;28;20045;-81
2022/01/02 02:53:50;;;;;;;12.63;7.38;;;;;;;;;;4971372;28;20031;-79
2022/01/02 02:56:30;;;;;;;15.25;8.65;;;;;;;;;;4972724;28;20085;-80
2022/01/02 02:58:58;;;;;;;12.25;7.70;;;;;;;;;;4957351;28;20035;-79
2022/01/02 03:01:31;;;;;;;12.77;7.15;;;;;;;;;;4958018;28;20371;-79
2022/01/02 03:03:59;;;;;;;12.43;7.47;;;;;;;;;;4973820;28;20027;-79
2022/01/02 03:06:26;;;;;;;11.73;6.78;;;;;;;;;;4956037;28;20612;-80
2022/01/02 03:08:54;;;;;;;10.25;6.15;;;;;;;;;;4973357;28;20029;-80
2022/01/02 03:11:25;;;;;;;11.27;6.32;;;;;;;;;;4973356;28;20058;-80
2022/01/02 03:13:55;;;;;;;11.00;6.13;;;;;;;;;;4958122;28;20053;-79
2022/01/02 03:16:21;;;;;;;9.82;5.60;;;;;;;;;;4956927;28;20054;-79
2022/01/02 03:18:51;;;;;;;10.13;5.25;;;;;;;;;;4973635;28;20023;-80
2022/01/02 03:21:18;;;;;;;9.70;5.53;;;;;;;;;;4956999;28;20034;-80
2022/01/02 03:23:47;;;;;;;10.60;5.90;;;;;;;;;;4965169;28;20034;-80
2022/01/02 03:26:13;;;;;;;12.13;6.78;;;;;;;;;;4967593;28;20073;-81
2022/01/02 03:29:01;;;;;;;12.00;7.03;;;;;;;;;;4951014;28;20026;-79
2022/01/02 03:31:30;;;;;;;10.93;6.00;;;;;;;;;;4967061;28;20033;-79
2022/01/02 03:33:58;;;;;;;11.07;6.47;;;;;;;;;;4954561;28;20040;-79
2022/01/02 03:36:28;;;;;;;10.45;5.85;;;;;;;;;;4965936;28;20030;-79
2022/01/02 03:38:54;;;;;;;10.70;5.82;;;;;;;;;;4948995;28;20470;-79
2022/01/02 03:41:22;;;;;;;11.38;6.20;;;;;;;;;;4955791;28;20061;-79
2022/01/02 03:43:50;;;;;;;10.20;5.35;;;;;;;;;;4948061;28;20043;-79
2022/01/02 03:46:19;;;;;;;10.50;5.82;;;;;;;;;;4949742;28;20150;-79
2022/01/02 03:48:48;;;;;;;10.63;5.80;;;;;;;;;;4932572;28;20039;-79
2022/01/02 03:51:15;;;;;;;10.68;6.05;;;;;;;;;;4930925;28;20051;-79
2022/01/02 03:53:43;;;;;;;11.35;5.90;;;;;;;;;;4949986;28;20225;-79
2022/01/02 03:56:10;;;;;;;11.05;5.88;;;;;;;;;;4930152;28;20027;-78
2022/01/02 03:58:39;;;;;;;10.30;5.95;;;;;;;;;;4945724;28;20138;-79
2022/01/02 04:01:06;;;;;;;11.07;6.47;;;;;;;;;;4931634;28;20127;-79
2022/01/02 04:03:34;;;;;;;10.75;6.03;;;;;;;;;;4930919;28;20213;-79
2022/01/02 04:06:03;;;;;;;11.52;6.55;;;;;;;;;;4927709;28;20030;-79
2022/01/02 04:08:31;;;;;;;10.52;5.85;;;;;;;;;;4931453;28;20063;-79
2022/01/02 04:10:59;;;;;;;10.75;5.63;;;;;;;;;;4945824;28;20441;-79
2022/01/02 04:13:26;;;;;;;11.43;6.97;;;;;;;;;;4930700;28;20054;-79
2022/01/02 04:15:54;;;;;;;10.88;5.80;;;;;;;;;;4944884;28;20753;-79
2022/01/02 04:18:21;;;;;;;11.30;6.70;;;;;;;;;;4928680;28;20041;-79
2022/01/02 04:20:49;;;;;;;12.10;7.03;;;;;;;;;;4946695;28;20804;-79
2022/01/02 04:23:15;;;;;;;11.80;6.82;;;;;;;;;;4929463;28;20238;-78
2022/01/02 04:25:41;;;;;;;;;;;;;;;;;;4941599;28;20065;-79
2022/01/02 04:28:10;;;;;;;12.13;6.78;;;;;;;;;;4941719;28;20013;-79
2022/01/02 04:30:37;;;;;;;11.20;6.32;;;;;;;;;;4946769;28;20027;-79
2022/01/02 04:33:07;;;;;;;11.95;6.22;;;;;;;;;;4941309;28;20137;-79
2022/01/02 04:35:34;;;;;;;11.07;6.15;;;;;;;;;;4947831;28;20031;-79
2022/01/02 04:38:02;;;;;;;11.85;6.70;;;;;;;;;;4949424;28;20030;-80
2022/01/02 04:40:31;;;;;;;10.35;6.00;;;;;;;;;;4926590;28;20069;-82
2022/01/02 04:42:59;;;;;;;10.88;6.07;;;;;;;;;;4924828;28;20419;-79
2022/01/02 04:45:28;;;;;;;11.50;5.82;;;;;;;;;;4927243;28;20031;-79
2022/01/02 04:47:55;;;;;;;10.90;6.60;;;;;;;;;;4928440;28;20039;-78
2022/01/02 04:50:22;;;;;;;11.27;6.30;;;;;;;;;;4926973;28;20051;-79
2022/01/02 04:52:50;;;;;;;9.80;5.85;;;;;;;;;;4934611;28;20178;-80
2022/01/02 04:55:18;;;;;;;11.68;6.93;;;;;;;;;;4929065;28;20588;-78
2022/01/02 04:57:58;;;;;;;12.27;7.50;;;;;;;;;;4926364;28;20703;-79
2022/01/02 05:00:26;;;;;;;12.45;7.20;;;;;;;;;;4925514;28;20035;-79
2022/01/02 05:02:54;;;;;;;12.43;7.15;;;;;;;;;;4924729;28;20031;-80
2022/01/02 05:05:22;;;;;;;12.30;6.75;;;;;;;;;;4912577;29;20039;-79
2022/01/02 05:07:49;;;;;;;10.63;6.18;;;;;;;;;;4925466;28;20062;-79
2022/01/02 05:10:17;;;;;;;11.15;6.35;;;;;;;;;;4911850;28;20045;-79
2022/01/02 05:12:45;;;;;;;11.68;6.95;;;;;;;;;;4926008;28;20587;-79
2022/01/02 05:15:12;;;;;;;10.68;5.95;;;;;;;;;;4925263;28;20079;-79
2022/01/02 05:17:38;;;;;;;12.77;7.00;;;;;;;;;;4927183;28;20042;-79
2022/01/02 05:20:07;;;;;;;11.75;6.85;;;;;;;;;;4923234;28;20106;-79
2022/01/02 05:22:33;;;;;;;11.88;6.95;;;;;;;;;;4927406;28;20051;-79
2022/01/02 05:25:01;;;;;;;11.38;7.30;;;;;;;;;;4921368;28;20106;-80
2022/01/02 05:27:39;;;;;;;11.93;7.20;;;;;;;;;;4926943;28;20467;-81
2022/01/02 05:30:09;;;;;;;12.00;7.05;;;;;;;;;;4929360;28;20114;-81
2022/01/02 05:32:38;;;;;;;11.45;7.05;;;;;;;;;;4964323;28;20043;-81
2022/01/02 05:35:06;;;;;;;13.07;8.60;;;;;;;;;;4944987;28;21380;-80
2022/01/02 05:37:33;;;;;;;12.70;7.80;;;;;;;;;;4950595;28;20642;-81
2022/01/02 05:40:01;;;;;;;12.40;7.60;;;;;;;;;;4949948;28;20933;-81
2022/01/02 05:42:29;;;;;;;12.77;7.93;;;;;;;;;;4945929;28;20070;-81
2022/01/02 05:44:57;;;;;;;11.07;6.85;;;;;;;;;;4963643;28;20088;-81
2022/01/02 05:47:25;;;;;;;11.50;7.25;;;;;;;;;;4967325;28;20772;-79
2022/01/02 05:49:53;;;;;;;11.52;7.28;;;;;;;;;;4964920;28;20129;-81
2022/01/02 05:52:22;;;;;;;12.55;7.50;;;;;;;;;;4949876;28;20507;-78
2022/01/02 05:54:49;;;;;;;11.88;7.10;;;;;;;;;;4961862;28;20133;-79
2022/01/02 05:57:17;;;;;;;12.73;8.00;;;;;;;;;;4942138;28;20532;-79
2022/01/02 05:59:45;;;;;;;14.05;8.85;;;;;;;;;;4967149;28;20477;-79
2022/01/02 06:02:14;;;;;;;11.27;6.78;;;;;;;;;;4945112;28;20038;-79
2022/01/02 06:04:40;;;;;;;11.45;7.30;;;;;;;;;;4947138;28;20034;-79
2022/01/02 06:07:08;;;;;;;11.50;7.05;;;;;;;;;;4960321;28;20054;-79
2022/01/02 06:09:35;;;;;;;12.30;7.25;;;;;;;;;;4965293;28;20104;-79
2022/01/02 06:12:02;;;;;;;11.55;7.15;;;;;;;;;;4960003;28;20085;-79
2022/01/02 06:14:30;;;;;;;11.38;7.05;;;;;;;;;;4962486;28;20776;-79
2022/01/02 06:16:59;;;;;;;11.70;7.38;;;;;;;;;;4962593;28;20638;-79
2022/01/02 06:19:25;;;;;;;12.30;7.13;;;;;;;;;;4930546;28;20046;-81
2022/01/02 06:21:52;;;;;;;13.13;8.07;;;;;;;;;;4946222;28;20085;-81
2022/01/02 06:24:19;;;;;;;11.07;7.20;;;;;;;;;;4945492;28;20466;-79
2022/01/02 06:26:48;;;;;;;14.93;8.45;;;;;;;;;;4965350;28;20078;-79
2022/01/02 06:29:15;;;;;;;13.15;7.90;;;;;;;;;;4924775;28;20232;-79
2022/01/02 06:31:42;;;;;;;13.60;8.20;;;;;;;;;;4947278;28;20034;-79
2022/01/02 06:34:12;;;;;;;12.50;7.78;;;;;;;;;;4958161;28;20405;-79
2022/01/02 06:36:40;;;;;;;13.52;8.75;;;;;;;;;;4960877;28;20037;-79
2022/01/02 06:39:07;;;;;;;13.73;8.65;;;;;;;;;;4963792;28;20023;-78
2022/01/02 06:41:35;;;;;;;14.73;9.50;;;;;;;;;;4963316;28;20030;-78
2022/01/02 06:44:09;;;;;;;13.90;8.75;;;;;;;;;;4958726;28;21047;-78
2022/01/02 06:46:35;;;;;;;14.07;8.93;;;;;;;;;;4964444;28;20034;-79
2022/01/02 06:49:03;;;;;;;15.98;9.82;;;;;;;;;;4959172;28;20343;-79
2022/01/02 06:51:30;;;;;;;15.07;10.60;;;;;;;;;;4947177;28;20528;-79
2022/01/02 06:53:57;;;;;;;16.33;10.90;;;;;;;;;;4962263;28;20034;-79
2022/01/02 06:56:26;;;;;;;15.32;10.15;;;;;;;;;;4950823;28;20125;-78
2022/01/02 06:58:53;;;;;;;15.13;10.20;;;;;;;;;;4922489;28;20181;-78
2022/01/02 07:01:21;;;;;;;16.05;10.35;;;;;;;;;;4926542;28;20607;-81
2022/01/02 07:03:49;;;;;;;;;;;;;;;;;;4928648;28;20097;-79
2022/01/02 07:06:15;;;;;;;14.43;9.02;;;;;;;;;;4941004;28;19910;-79
2022/01/02 07:08:41;;;;;;;16.50;10.27;;;;;;;;;;4930677;28;20057;-78
2022/01/02 07:11:11;;;;;;;16.02;9.38;;;;;;;;;;4922545;28;20097;-81
2022/01/02 07:13:41;;;;;;;15.90;9.55;;;;;;;;;;4943064;28;21156;-81
2022/01/02 07:16:09;;;;;;;15.68;8.98;;;;;;;;;;4909860;28;20069;-78
2022/01/02 07:18:37;;;;;;;15.10;9.25;;;;;;;;;;4911533;28;20146;-79
2022/01/02 07:21:03;;;;;;;17.13;9.85;;;;;;;;;;4924009;28;20082;-78
2022/01/02 07:23:29;;;;;;;;;;;;;;;;;;4942952;28;20053;-78
2022/01/02 07:25:56;;;;;;;14.52;9.30;;;;;;;;;;4940896;28;19965;-79
2022/01/02 07:28:24;;;;;;;;;;;;;;;;;;4943539;28;20023;-78
2022/01/02 07:30:51;;;;;;;14.90;9.00;;;;;;;;;;4946110;28;20078;-81
2022/01/02 07:33:18;;;;;;;14.05;8.52;;;;;;;;;;4948639;28;20030;-78
2022/01/02 07:35:45;;;;;;;13.02;8.38;;;;;;;;;;4961298;28;20035;-79
2022/01/02 07:38:11;;;;;;;13.57;8.82;;;;;;;;;;4918650;28;20044;-82
2022/01/02 07:40:39;;;;;;;14.30;9.10;;;;;;;;;;4946206;28;20043;-78
2022/01/02 07:43:07;;;;;;;13.98;9.48;;;;;;;;;;4942240;28;20826;-79
2022/01/02 07:45:35;;;;;;;13.60;8.88;;;;;;;;;;4945808;28;20034;-81
2022/01/02 07:48:04;;;;;;;13.32;9.32;;;;;;;;;;4942898;28;20043;-81
2022/01/02 07:50:32;;;;;;;14.40;9.50;;;;;;;;;;4979792;28;20109;-81
2022/01/02 07:52:59;;;;;;;14.35;9.50;;;;;;;;;;4974669;28;20038;-79
2022/01/02 07:55:29;;;;;;;13.25;8.98;;;;;;;;;;4976741;28;20042;-81
2022/01/02 07:57:56;;;;;;;15.98;12.07;;;;;;;;;;4957412;28;20030;-81
2022/01/02 08:00:25;;;;;;;17.48;13.48;;;;;;;;;;4932763;28;20035;-80
2022/01/02 08:02:51;;;;;;;17.95;13.90;;;;;;;;;;4964969;28;20639;-80
2022/01/02 08:05:17;;;;;;;17.17;12.80;;;;;;;;;;4963542;28;20042;-81
2022/01/02 08:07:45;;;;;;;17.85;13.25;;;;;;;;;;4946434;28;20038;-81
2022/01/02 08:10:12;;;;;;;17.20;12.57;;;;;;;;;;4962603;28;21276;-80
2022/01/02 08:12:40;;;;;;;15.93;12.00;;;;;;;;;;4947446;28;20073;-80
2022/01/02 08:15:08;;;;;;;13.82;11.25;;;;;;;;;;4962994;28;20030;-79
2022/01/02 08:17:37;;;;;;;13.40;10.02;;;;;;;;;;4949760;28;20321;-79
2022/01/02 08:20:05;;;;;;;14.70;10.82;;;;;;;;;;4925424;28;20121;-78
2022/01/02 08:22:33;;;;;;;14.30;11.05;;;;;;;;;;4935846;28;21038;-78
2022/01/02 08:24:59;;;;;;;15.68;12.13;;;;;;;;;;4946285;28;20041;-79
2022/01/02 08:27:27;;;;;;;15.63;11.95;;;;;;;;;;4917403;28;20086;-79
2022/01/02 08:29:54;;;;;;;14.00;11.52;;;;;;;;;;4907518;28;20055;-79
2022/01/02 08:32:22;;;;;;;14.50;11.60;;;;;;;;;;4930917;28;20039;-81
2022/01/02 08:34:51;;;;;;;16.38;11.20;;;;;;;;;;4943196;28;20031;-80
2022/01/02 08:37:17;;;;;;;13.55;9.73;;;;;;;;;;4929767;28;20850;-81
2022/01/02 08:39:45;;;;;;;12.80;10.10;;;;;;;;;;4943385;28;20093;-81
2022/01/02 08:42:16;;;;;;;12.77;9.68;;;;;;;;;;4941809;28;20645;-80
2022/01/02 08:44:43;;;;;;;14.23;10.32;;;;;;;;;;4916705;28;20042;-81
2022/01/02 08:47:13;;;;;;;13.45;10.73;;;;;;;;;;4924680;28;20047;-80
2022/01/02 08:49:40;;;;;;;14.35;11.00;;;;;;;;;;4942430;28;20024;-80
2022/01/02 08:52:09;;;;;;;13.55;10.52;;;;;;;;;;4944170;28;20610;-80
2022/01/02 08:54:35;;;;;;;12.32;8.10;;;;;;;;;;4929079;28;20441;-80
2022/01/02 08:57:06;;;;;;;;;;;;;;;;;;4942603;28;20051;-79
2022/01/02 08:59:33;;;;;;;11.73;8.95;;;;;;;;;;4929753;28;19909;-80
2022/01/02 09:02:02;;;;;;;13.35;8.77;;;;;;;;;;4927036;28;20045;-80
2022/01/02 09:04:28;;;;;;;10.45;7.30;;;;;;;;;;4945384;28;20125;-80
2022/01/02 09:06:55;;;;;;;11.02;7.63;;;;;;;;;;4930767;28;20504;-79
2022/01/02 09:09:26;;;;;;;11.60;8.30;;;;;;;;;;4928568;28;20043;-80
2022/01/02 09:11:54;;;;;;;12.05;8.20;;;;;;;;;;4927097;28;20030;-80
2022/01/02 09:14:23;;;;;;;11.60;8.45;;;;;;;;;;4928345;28;20043;-80
2022/01/02 09:16:49;;;;;;;11.32;7.90;;;;;;;;;;4926491;28;20043;-79
2022/01/02 09:19:16;;;;;;;10.60;7.68;;;;;;;;;;4929056;28;20071;-79
2022/01/02 09:21:44;;;;;;;12.07;7.40;;;;;;;;;;4931185;28;20034;-79
2022/01/02 09:24:12;;;;;;;11.20;7.47;;;;;;;;;;4924471;28;20034;-79
2022/01/02 09:26:41;;;;;;;11.25;7.25;;;;;;;;;;4937106;28;20100;-81
2022/01/02 09:29:10;;;;;;;11.93;8.00;;;;;;;;;;4945877;28;20035;-81
2022/01/02 09:31:41;;;;;;;10.07;6.38;;;;;;;;;;4951308;28;21375;-80
2022/01/02 09:34:08;;;;;;;11.57;7.07;;;;;;;;;;4928590;28;20046;-81
2022/01/02 09:36:37;;;;;;;10.25;6.30;;;;;;;;;;4911136;28;20040;-81
2022/01/02 09:39:10;;;;;;;10.52;6.18;;;;;;;;;;4910744;28;20059;-80
2022/01/02 09:41:42;;;;;;;9.40;5.80;;;;;;;;;;4873569;29;20036;-80
2022/01/02 09:44:11;;;;;;;9.90;5.97;;;;;;;;;;4857543;29;20131;-80
2022/01/02 09:46:41;;;;;;;9.60;5.88;;;;;;;;;;4872814;29;20033;-81
2022/01/02 09:49:09;;;;;;;8.95;5.30;;;;;;;;;;4864691;29;20053;-80
2022/01/02 09:51:38;;;;;;;11.05;6.10;;;;;;;;;;4868227;29;20513;-80
2022/01/02 09:54:11;;;;;;;10.25;6.10;;;;;;;;;;4863098;29;20048;-80
2022/01/02 09:56:39;;;;;;;8.65;5.25;;;;;;;;;;4852774;29;20159;-80
2022/01/02 09:59:09;;;;;;;9.18;5.65;;;;;;;;;;4865985;29;20033;-79
2022/01/02 10:01:37;;;;;;;9.18;4.95;;;;;;;;;;4867314;29;20036;-80
2022/01/02 10:04:04;;;;;;;9.35;4.85;;;;;;;;;;4869592;29;20120;-80
2022/01/02 10:06:48;;;;;;;9.68;5.20;;;;;;;;;;4872713;29;20103;-80
2022/01/02 10:09:17;;;;;;;9.77;5.50;;;;;;;;;;4867835;29;20131;-80
2022/01/02 10:11:52;;;;;;;8.93;4.68;;;;;;;;;;4872447;29;20052;-80
2022/01/02 10:14:23;;;;;;;9.23;5.30;;;;;;;;;;4868994;29;20052;-80
2022/01/02 10:16:51;;;;;;;8.75;4.90;;;;;;;;;;4848501;29;20215;-79
2022/01/02 10:19:19;;;;;;;9.45;5.63;;;;;;;;;;4907743;29;20510;-80
2022/01/02 10:21:56;;;;;;;9.95;6.13;;;;;;;;;;4910262;29;20277;-81
2022/01/02 10:24:28;;;;;;;10.02;5.55;;;;;;;;;;4901406;29;20858;-79
2022/01/02 10:27:13;;;;;;;10.23;4.78;;;;;;;;;;4900620;29;20059;-80
2022/01/02 10:29:47;;;;;;;9.70;5.35;;;;;;;;;;4892381;29;20377;-78
2022/01/02 10:32:37;;;;;;;9.02;4.43;;;;;;;;;;4911152;28;20105;-79
2022/01/02 10:35:12;;;;;;;8.48;4.90;;;;;;;;;;4927844;28;20034;-82
2022/01/02 10:37:40;;;;;;;9.48;5.55;;;;;;;;;;4948151;28;20031;-76
2022/01/02 10:40:23;;;;;;;10.15;5.57;;;;;;;;;;4933693;28;20047;-76
2022/01/02 10:42:53;;;;;;;10.52;6.72;;;;;;;;;;4918624;28;20607;-77
2022/01/02 10:45:37;;;;;;;12.15;7.32;;;;;;;;;;4927351;28;20073;-80
2022/01/02 10:48:07;;;;;;;11.10;7.78;;;;;;;;;;4944651;28;20716;-80
2022/01/02 10:50:37;;;;;;;13.75;8.82;;;;;;;;;;4966687;28;20140;-80
2022/01/02 10:53:16;;;;;;;13.07;7.63;;;;;;;;;;4959899;28;20034;-79
2022/01/02 10:55:46;;;;;;;10.95;7.47;;;;;;;;;;4967079;28;20026;-80
2022/01/02 10:58:16;;;;;;;11.77;7.53;;;;;;;;;;4962371;28;20030;-79
2022/01/02 11:00:44;;;;;;;11.45;7.85;;;;;;;;;;4958321;28;20026;-82
2022/01/02 11:03:17;;;;;;;12.93;7.82;;;;;;;;;;4965975;28;20038;-85
2022/01/02 11:05:48;;;;;;;13.50;8.93;;;;;;;;;;4940878;28;20049;-81
2022/01/02 11:08:15;;;;;;;12.77;8.07;;;;;;;;;;4956319;28;20025;-79
2022/01/02 11:10:43;;;;;;;11.93;7.32;;;;;;;;;;4968537;28;20042;-80
2022/01/02 11:13:10;;;;;;;10.80;6.93;;;;;;;;;;4938812;28;20418;-80
2022/01/02 11:15:40;;;;;;;13.32;8.65;;;;;;;;;;4974627;28;20314;-80
2022/01/02 11:18:10;;;;;;;11.70;7.65;;;;;;;;;;4968783;28;20355;-76
2022/01/02 11:20:39;;;;;;;11.90;7.38;;;;;;;;;;4954141;28;20491;-79
2022/01/02 11:23:20;;;;;;;12.75;8.55;;;;;;;;;;4952917;28;20099;-78
2022/01/02 11:26:08;;;;;;;12.02;7.88;;;;;;;;;;4924874;28;20042;-79
2022/01/02 11:28:37;;;;;;;13.48;9.23;;;;;;;;;;4924140;28;20193;-77
2022/01/02 11:31:09;;;;;;;11.40;7.60;;;;;;;;;;4925577;28;20278;-77
2022/01/02 11:33:42;;;;;;;13.18;8.02;;;;;;;;;;4914179;28;20129;-78
2022/01/02 11:36:31;;;;;;;13.07;6.93;;;;;;;;;;4921874;28;20260;-81
2022/01/02 11:39:01;;;;;;;12.57;7.00;;;;;;;;;;4926356;28;20043;-78
2022/01/02 11:41:46;;;;;;;11.77;6.65;;;;;;;;;;4911308;28;20054;-78
2022/01/02 11:44:22;;;;;;;13.02;7.50;;;;;;;;;;4930158;28;20043;-80
2022/01/02 11:46:55;;;;;;;12.32;7.53;;;;;;;;;;4920891;28;20050;-84
2022/01/02 11:49:43;;;;;;;12.30;6.65;;;;;;;;;;4932135;28;20049;-80
2022/01/02 11:52:22;;;;;;;11.35;6.13;;;;;;;;;;4927375;28;22246;-79
2022/01/02 11:54:55;;;;;;;13.00;7.43;;;;;;;;;;4931145;28;20047;-79
2022/01/02 11:57:23;;;;;;;10.60;5.78;;;;;;;;;;4933175;28;20545;-79
2022/01/02 11:59:52;;;;;;;9.27;4.55;;;;;;;;;;4920963;28;20041;-80
2022/01/02 12:02:27;;;;;;;9.32;5.25;;;;;;;;;;4930598;28;20035;-81
2022/01/02 12:05:15;;;;;;;12.38;6.40;;;;;;;;;;4931714;28;21328;-81
2022/01/02 12:07:56;;;;;;;11.93;6.80;;;;;;;;;;4943270;28;20022;-81
2022/01/02 12:10:28;;;;;;;13.63;8.52;;;;;;;;;;4970372;28;20068;-80
2022/01/02 12:13:13;;;;;;;17.23;10.32;;;;;;;;;;4961397;28;20038;-80
2022/01/02 12:15:41;;;;;;;16.15;9.85;;;;;;;;;;4980237;28;20105;-81
2022/01/02 12:18:19;;;;;;;28.58;16.20;;;;;;;;;;4954885;28;20029;-81
2022/01/02 12:20:56;;;;;;;27.35;16.05;;;;;;;;;;4955644;28;20034;-80
2022/01/02 12:23:49;;;;;;;20.77;11.27;;;;;;;;;;4970599;28;20509;-80
2022/01/02 12:26:31;;;;;;;16.00;9.15;;;;;;;;;;4975055;28;20040;-80
2022/01/02 12:29:12;;;;;;;12.15;6.75;;;;;;;;;;4964235;28;20038;-80
2022/01/02 12:31:45;;;;;;;12.07;6.93;;;;;;;;;;4951812;28;20137;-80
2022/01/02 12:34:20;;;;;;;11.75;6.00;;;;;;;;;;4946801;28;20043;-80
2022/01/02 12:36:50;;;;;;;9.30;4.38;;;;;;;;;;4950500;28;20081;-80
2022/01/02 12:39:28;;;;;;;12.70;5.63;;;;;;;;;;4949459;28;20103;-81
2022/01/02 12:42:08;;;;;;;11.52;5.35;;;;;;;;;;4948620;28;20038;-80
2022/01/02 12:44:37;;;;;;;13.55;7.28;;;;;;;;;;4967898;28;20034;-81
2022/01/02 12:47:04;;;;;;;15.75;9.68;;;;;;;;;;4932853;28;20097;-78
2022/01/02 12:49:33;;;;;;;16.25;8.45;;;;;;;;;;4949860;28;20031;-80
2022/01/02 12:52:07;;;;;;;15.25;9.23;;;;;;;;;;4966481;28;20077;-81
2022/01/02 12:54:42;;;;;;;12.88;7.15;;;;;;;;;;4970737;28;20074;-81
2022/01/02 12:57:12;;;;;;;11.55;6.70;;;;;;;;;;4965904;28;20034;-79
2022/01/02 12:59:42;;;;;;;13.05;7.32;;;;;;;;;;4933776;28;20033;-80
2022/01/02 13:02:31;;;;;;;15.85;9.93;;;;;;;;;;4963224;28;20700;-80
2022/01/02 13:05:18;;;;;;;11.82;7.07;;;;;;;;;;4970099;28;20034;-79
2022/01/02 13:07:56;;;;;;;10.60;5.50;;;;;;;;;;4967234;28;20037;-80
2022/01/02 13:10:23;;;;;;;9.30;4.30;;;;;;;;;;4950628;28;20431;-80
2022/01/02 13:12:50;;;;;;;9.70;4.88;;;;;;;;;;4955558;28;20046;-80
2022/01/02 13:15:18;;;;;;;8.48;4.30;;;;;;;;;;4948873;28;20445;-81
2022/01/02 13:17:50;;;;;;;8.68;3.95;;;;;;;;;;4965260;28;20030;-80
2022/01/02 13:20:19;;;;;;;8.25;4.13;;;;;;;;;;4954141;28;20128;-81
2022/01/02 13:22:51;;;;;;;9.07;4.43;;;;;;;;;;4969217;28;20026;-81
2022/01/02 13:25:33;;;;;;;9.27;4.18;;;;;;;;;;4971438;28;20836;-82
2022/01/02 13:28:07;;;;;;;8.00;4.00;;;;;;;;;;4952200;28;20809;-81
2022/01/02 13:30:55;;;;;;;9.80;4.50;;;;;;;;;;4972124;28;20056;-81
2022/01/02 13:33:30;;;;;;;10.65;5.25;;;;;;;;;;4958506;28;20060;-81
2022/01/02 13:36:08;;;;;;;8.98;4.60;;;;;;;;;;4971281;28;20034;-81
2022/01/02 13:38:52;;;;;;;8.35;4.03;;;;;;;;;;4978356;28;20049;-82
2022/01/02 13:41:29;;;;;;;7.20;3.20;;;;;;;;;;4975139;28;20030;-80
2022/01/02 13:43:59;;;;;;;8.20;3.65;;;;;;;;;;4965809;28;20069;-81
2022/01/02 13:46:28;;;;;;;7.85;3.58;;;;;;;;;;4955558;28;20042;-78
2022/01/02 13:49:00;;;;;;;9.48;4.05;;;;;;;;;;4970579;28;20049;-77
2022/01/02 13:51:33;;;;;;;7.68;3.40;;;;;;;;;;4927928;28;20031;-81
2022/01/02 13:54:01;;;;;;;7.88;3.50;;;;;;;;;;4951471;28;20030;-78
2022/01/02 13:56:29;;;;;;;9.18;3.90;;;;;;;;;;4972042;28;20082;-77
2022/01/02 13:58:58;;;;;;;9.77;4.03;;;;;;;;;;4950972;28;20026;-78
2022/01/02 14:01:44;;;;;;;8.68;4.35;;;;;;;;;;4974044;28;20128;-79
2022/01/02 14:04:20;;;;;;;8.55;3.83;;;;;;;;;;4976430;28;20496;-79
2022/01/02 14:06:48;;;;;;;8.20;3.45;;;;;;;;;;4981022;28;20043;-80
2022/01/02 14:12:10;;;;;;;7.15;2.92;;;;;;;;;;4972210;28;20488;-79
2022/01/02 14:14:50;;;;;;;6.40;2.90;;;;;;;;;;4958652;28;20347;-79
2022/01/02 14:20:04;;;;;;;7.13;2.80;;;;;;;;;;4957560;28;20097;-79
2022/01/02 14:22:35;;;;;;;6.93;2.97;;;;;;;;;;4975825;28;20030;-79
2022/01/02 14:25:06;;;;;;;7.13;2.97;;;;;;;;;;4973033;28;20048;-79
2022/01/02 14:27:34;;;;;;;6.82;2.85;;;;;;;;;;4976774;28;20118;-79
2022/01/02 14:30:05;;;;;;;7.93;3.55;;;;;;;;;;4956709;28;20026;-79
2022/01/02 14:32:33;;;;;;;7.72;3.22;;;;;;;;;;4976526;28;20031;-79
2022/01/02 14:35:03;;;;;;;8.38;3.47;;;;;;;;;;4970210;28;20050;-79
2022/01/02 14:37:30;;;;;;;7.20;3.20;;;;;;;;;;4963033;28;20156;-78
2022/01/02 14:40:00;;;;;;;8.23;3.03;;;;;;;;;;4973597;28;20119;-79
2022/01/02 14:42:27;;;;;;;7.65;3.30;;;;;;;;;;4980683;28;20030;-78
2022/01/02 14:44:54;;;;;;;7.03;3.00;;;;;;;;;;4971216;28;20390;-79
2022/01/02 14:47:20;;;;;;;6.35;2.85;;;;;;;;;;4962160;28;20033;-79
2022/01/02 14:49:48;;;;;;;7.63;3.35;;;;;;;;;;4926262;28;20030;-79
2022/01/02 14:52:18;;;;;;;6.55;2.88;;;;;;;;;;4971678;28;20063;-79
2022/01/02 14:54:45;;;;;;;8.40;3.28;;;;;;;;;;4938833;28;20946;-80
2022/01/02 14:57:14;;;;;;;6.80;2.72;;;;;;;;;;4954070;28;20640;-79
2022/01/02 14:59:47;;;;;;;7.15;2.88;;;;;;;;;;4973449;28;20018;-79
2022/01/02 15:02:15;;;;;;;6.88;2.72;;;;;;;;;;4955487;28;20092;-79
2022/01/02 15:04:43;;;;;;;6.70;2.83;;;;;;;;;;4974301;28;20112;-78